Time;durP1;ratioP1;P1;durP2;ratioP2;P2;SDS_P1;SDS_P2;PMS_P1;PMS_P2;Temp;Humidity;BMP_temperature;BMP_pressure;BME280_temperature;BME280_humidity;BME280_pressure;Samples;Min_cycle;Max_cycle;Signal;HPM_P1;HPM_P2
2021/03/27 00:00:31;;;;;;;4.15;2.90;;;;;;;5.51;100.00;101064.78;5037918;28;20037;-61
2021/03/27 00:03:01;;;;;;;6.22;2.75;;;;;;;5.46;100.00;101070.38;5038160;28;20049;-62
2021/03/27 00:05:30;;;;;;;3.95;2.78;;;;;;;5.51;100.00;101067.44;5036361;28;20056;-61
2021/03/27 00:08:13;;;;;;;8.82;2.90;;;;;;;5.49;100.00;101059.53;5038723;28;20100;-61
2021/03/27 00:10:46;;;;;;;4.68;2.78;;;;;;;5.49;100.00;101054.19;5037138;28;20055;-61
2021/03/27 00:13:31;;;;;;;4.53;2.40;;;;;;;5.38;100.00;101046.84;5036203;28;20084;-62
2021/03/27 00:16:16;;;;;;;5.72;2.88;;;;;;;5.36;100.00;101045.22;5036314;28;20083;-61
2021/03/27 00:18:52;;;;;;;6.90;3.05;;;;;;;5.34;100.00;101052.50;5036189;28;20041;-61
2021/03/27 00:21:25;;;;;;;4.85;2.50;;;;;;;5.35;100.00;101051.56;5034655;28;20116;-61
2021/03/27 00:23:53;;;;;;;6.82;2.70;;;;;;;5.31;100.00;101052.69;5037727;28;20501;-62
2021/03/27 00:26:26;;;;;;;5.90;3.33;;;;;;;5.26;100.00;101048.50;5042417;28;20549;-62
2021/03/27 00:28:57;;;;;;;7.78;3.80;;;;;;;5.29;100.00;101041.28;5038367;28;20354;-64
2021/03/27 00:31:26;;;;;;;5.93;3.58;;;;;;;5.19;100.00;101055.16;5039858;28;20057;-61
2021/03/27 00:33:56;;;;;;;7.40;3.47;;;;;;;5.23;100.00;101064.69;5041819;28;20057;-60
2021/03/27 00:36:25;;;;;;;5.00;3.83;;;;;;;5.26;100.00;101077.84;5039879;28;20049;-61
2021/03/27 00:38:59;;;;;;;8.73;4.03;;;;;;;5.24;100.00;101079.78;5043221;28;20056;-63
2021/03/27 00:41:34;;;;;;;10.05;3.80;;;;;;;5.19;100.00;101079.19;5047245;28;20049;-62
2021/03/27 00:44:02;;;;;;;5.57;3.65;;;;;;;5.25;100.00;101078.78;5048683;28;20152;-61
2021/03/27 00:46:30;;;;;;;6.70;3.90;;;;;;;5.18;100.00;101069.50;5049929;28;20055;-62
2021/03/27 00:49:00;;;;;;;7.75;3.90;;;;;;;5.17;100.00;101065.09;5048296;28;20041;-62
2021/03/27 00:51:29;;;;;;;6.05;3.70;;;;;;;5.18;100.00;101076.63;5042025;28;20053;-62
2021/03/27 00:54:02;;;;;;;6.40;4.05;;;;;;;5.18;100.00;101069.50;5036126;28;20052;-62
2021/03/27 00:56:31;;;;;;;6.68;3.42;;;;;;;5.21;100.00;101071.97;5037829;28;20064;-62
2021/03/27 00:59:00;;;;;;;6.63;3.38;;;;;;;5.20;100.00;101064.06;5039870;28;20049;-61
2021/03/27 01:01:34;;;;;;;6.00;3.17;;;;;;;5.14;100.00;101067.97;5040314;28;20056;-61
2021/03/27 01:04:03;;;;;;;4.90;3.20;;;;;;;5.19;100.00;101062.31;5039605;28;20069;-61
2021/03/27 01:06:32;;;;;;;5.30;3.33;;;;;;;5.15;100.00;101058.97;5037622;28;20049;-62
2021/03/27 01:09:00;;;;;;;4.67;3.23;;;;;;;5.15;100.00;101061.66;5040267;28;20079;-62
2021/03/27 01:11:30;;;;;;;5.25;2.42;;;;;;;5.14;100.00;101064.41;5041917;28;20041;-62
2021/03/27 01:13:59;;;;;;;6.68;3.03;;;;;;;5.13;100.00;101063.56;5039275;28;20068;-62
2021/03/27 01:16:29;;;;;;;4.95;3.05;;;;;;;5.13;100.00;101063.56;5037539;28;20052;-61
2021/03/27 01:19:00;;;;;;;7.15;3.42;;;;;;;5.16;100.00;101065.19;5038804;28;20048;-63
2021/03/27 01:21:30;;;;;;;7.10;3.72;;;;;;;5.12;100.00;101066.34;5039697;28;20052;-61
2021/03/27 01:23:58;;;;;;;6.20;3.65;;;;;;;5.18;100.00;101071.28;5037848;28;20119;-61
2021/03/27 01:26:27;;;;;;;8.13;4.50;;;;;;;5.13;100.00;101065.38;5037852;28;20060;-62
2021/03/27 01:28:59;;;;;;;8.05;4.85;;;;;;;5.05;100.00;101072.06;5039006;28;20094;-62
2021/03/27 01:31:41;;;;;;;7.78;4.80;;;;;;;5.02;100.00;101066.91;5037285;28;20060;-61
2021/03/27 01:34:15;;;;;;;12.00;4.55;;;;;;;5.05;100.00;101068.50;5037994;28;20053;-61
2021/03/27 01:36:47;;;;;;;7.20;4.32;;;;;;;5.10;100.00;101061.09;5039396;28;20060;-61
2021/03/27 01:39:16;;;;;;;8.88;4.47;;;;;;;5.08;100.00;101061.19;5037036;28;20405;-62
2021/03/27 01:41:57;;;;;;;8.10;5.05;;;;;;;5.06;100.00;101056.91;5037540;28;20053;-61
2021/03/27 01:44:52;;;;;;;9.05;5.18;;;;;;;5.04;100.00;101058.81;5037124;28;20060;-61
2021/03/27 01:47:26;;;;;;;9.43;4.80;;;;;;;5.05;100.00;101065.84;5029092;28;20468;-64
2021/03/27 01:50:11;;;;;;;9.63;4.88;;;;;;;5.07;100.00;101075.47;5031152;28;20067;-61
2021/03/27 01:52:50;;;;;;;8.75;5.00;;;;;;;5.07;100.00;101083.47;5032364;28;20053;-61
2021/03/27 01:55:48;;;;;;;11.40;5.47;;;;;;;5.10;100.00;101085.09;5036116;28;20103;-61
2021/03/27 01:58:20;;;;;;;7.85;4.70;;;;;;;5.13;100.00;101095.59;5037432;28;20052;-61
2021/03/27 02:00:50;;;;;;;7.40;5.00;;;;;;;5.11;100.00;101086.84;5036236;28;20136;-61
2021/03/27 02:03:22;;;;;;;7.45;4.97;;;;;;;5.13;100.00;101090.25;5038899;28;20056;-64
2021/03/27 02:05:54;;;;;;;7.72;4.22;;;;;;;5.10;100.00;101095.78;5037449;28;20163;-62
2021/03/27 02:08:33;;;;;;;7.00;3.83;;;;;;;5.06;100.00;101088.91;5036325;28;20048;-61
2021/03/27 02:11:05;;;;;;;8.27;4.78;;;;;;;5.05;100.00;101092.53;5037273;28;20417;-62
2021/03/27 02:13:40;;;;;;;10.68;4.25;;;;;;;5.06;100.00;101091.56;5038000;28;20049;-61
2021/03/27 02:16:17;;;;;;;9.23;4.45;;;;;;;5.06;100.00;101094.25;5039194;28;20044;-63
2021/03/27 02:18:52;;;;;;;6.75;3.83;;;;;;;5.06;100.00;101095.13;5037560;28;20049;-61
2021/03/27 02:21:41;;;;;;;7.97;3.65;;;;;;;5.03;100.00;101097.09;5034838;28;20057;-65
2021/03/27 02:24:34;;;;;;;6.93;2.60;;;;;;;5.05;100.00;101106.75;5037791;28;20135;-61
2021/03/27 02:27:05;;;;;;;4.10;2.10;;;;;;;5.06;100.00;101108.47;5037030;28;20525;-64
2021/03/27 02:30:05;;;;;;;4.70;1.83;;;;;;;5.06;100.00;101112.91;5037334;28;20053;-61
2021/03/27 02:32:42;;;;;;;4.93;2.00;;;;;;;5.02;100.00;101122.06;5036265;28;20506;-61
2021/03/27 02:35:14;;;;;;;5.20;1.77;;;;;;;4.99;100.00;101132.91;5037756;28;20056;-62
2021/03/27 02:37:57;;;;;;;4.95;1.63;;;;;;;4.91;100.00;101128.91;5036527;28;20068;-63
2021/03/27 02:42:57;;;;;;;4.32;2.10;;;;;;;4.73;100.00;101132.69;5034624;22;20055;-62
2021/03/27 02:45:30;;;;;;;7.13;2.92;;;;;;;4.68;100.00;101140.09;5093763;28;20059;-62
2021/03/27 02:48:08;;;;;;;5.68;2.53;;;;;;;4.63;100.00;101142.19;5091921;28;20060;-62
2021/03/27 02:50:48;;;;;;;7.70;3.40;;;;;;;4.56;100.00;101150.56;5093034;28;20551;-61
2021/03/27 02:53:16;;;;;;;;;;;;;;;4.50;100.00;101156.22;5093492;28;20492;-61
2021/03/27 02:55:55;;;;;;;11.55;4.63;;;;;;;4.47;100.00;101160.88;5092990;28;19920;-63
2021/03/27 02:58:27;;;;;;;8.68;4.03;;;;;;;4.43;100.00;101160.22;5091711;28;20043;-61
2021/03/27 03:01:09;;;;;;;12.65;5.22;;;;;;;4.38;100.00;101157.78;5091841;28;20040;-62
2021/03/27 03:03:47;;;;;;;10.63;4.78;;;;;;;4.38;100.00;101157.78;5095102;28;20055;-64
2021/03/27 03:06:26;;;;;;;12.43;5.63;;;;;;;4.33;100.00;101156.38;5094209;28;20044;-61
2021/03/27 03:09:11;;;;;;;14.55;6.03;;;;;;;4.30;100.00;101162.72;5091993;28;20046;-61
2021/03/27 03:11:50;;;;;;;10.52;6.07;;;;;;;4.26;100.00;101173.66;5093129;28;20039;-63
2021/03/27 03:14:24;;;;;;;14.73;6.15;;;;;;;4.27;100.00;101170.91;5094345;28;20052;-61
2021/03/27 03:17:12;;;;;;;12.27;6.07;;;;;;;4.27;100.00;101167.34;5093446;28;20463;-61
2021/03/27 03:19:45;;;;;;;14.40;6.65;;;;;;;4.21;100.00;101177.44;5092898;28;20048;-61
2021/03/27 03:22:18;;;;;;;11.82;6.10;;;;;;;4.21;100.00;101180.09;5095574;28;20056;-62
2021/03/27 03:24:48;;;;;;;15.82;6.85;;;;;;;4.26;100.00;101178.97;5094241;28;20040;-64
2021/03/27 03:27:22;;;;;;;18.65;7.53;;;;;;;4.28;100.00;101177.94;5093336;28;20056;-63
2021/03/27 03:29:56;;;;;;;14.35;6.43;;;;;;;4.31;100.00;101171.56;5092622;28;20055;-60
2021/03/27 03:32:40;;;;;;;14.05;6.60;;;;;;;4.27;100.00;101175.34;5091009;28;20056;-61
2021/03/27 03:35:31;;;;;;;15.05;7.22;;;;;;;4.26;100.00;101173.66;5096850;28;20043;-63
2021/03/27 03:38:18;;;;;;;12.82;5.93;;;;;;;4.19;100.00;101173.97;5034407;22;20068;-61
2021/03/27 03:41:10;;;;;;;14.25;6.55;;;;;;;4.28;100.00;101171.75;5053496;28;20045;-63
2021/03/27 03:43:47;;;;;;;19.80;6.75;;;;;;;4.29;100.00;101173.47;5053903;28;20064;-63
2021/03/27 03:46:40;;;;;;;15.45;6.82;;;;;;;4.31;100.00;101176.91;5052563;28;20056;-61
2021/03/27 03:49:32;;;;;;;16.20;6.32;;;;;;;4.33;100.00;101185.69;5023272;28;20083;-61
2021/03/27 03:52:13;;;;;;;18.88;6.95;;;;;;;4.25;100.00;101182.59;5054138;28;20052;-61
2021/03/27 03:54:55;;;;;;;15.77;6.88;;;;;;;4.26;100.00;101189.63;5046635;28;20049;-62
2021/03/27 03:57:49;;;;;;;15.50;7.00;;;;;;;4.27;100.00;101196.66;5056064;28;20053;-63
2021/03/27 04:00:19;;;;;;;16.50;7.78;;;;;;;4.34;100.00;101198.03;5053970;28;20041;-61
2021/03/27 04:06:03;;;;;;;18.23;7.45;;;;;;;4.31;100.00;101192.88;5039404;22;20053;-63
2021/03/27 04:08:40;;;;;;;17.80;7.43;;;;;;;4.28;100.00;101193.06;5056808;28;20041;-61
2021/03/27 04:11:33;;;;;;;17.23;7.30;;;;;;;4.33;100.00;101196.34;5056917;28;20165;-61
2021/03/27 04:14:04;;;;;;;14.50;7.22;;;;;;;4.35;100.00;101195.28;5060199;28;20078;-61
2021/03/27 04:16:33;;;;;;;16.90;6.88;;;;;;;4.40;100.00;101205.69;5058670;28;20418;-62
2021/03/27 04:19:03;;;;;;;20.08;7.45;;;;;;;4.48;100.00;101205.25;5059473;28;20083;-62
2021/03/27 04:21:35;;;;;;;15.02;6.90;;;;;;;4.53;100.00;101214.72;5055093;28;20052;-61
2021/03/27 04:24:05;;;;;;;18.35;6.88;;;;;;;4.61;100.00;101202.72;5056799;28;20057;-61
2021/03/27 04:26:41;;;;;;;15.93;6.28;;;;;;;4.59;100.00;101212.63;5061744;28;20128;-63
2021/03/27 04:29:33;;;;;;;15.07;6.28;;;;;;;4.61;100.00;101216.06;5063515;28;20521;-60
2021/03/27 04:32:21;;;;;;;18.40;5.82;;;;;;;4.62;100.00;101207.13;5053640;28;20060;-61
2021/03/27 04:34:53;;;;;;;13.23;5.70;;;;;;;4.61;100.00;101214.25;5058955;28;20068;-61
2021/03/27 04:37:27;;;;;;;12.27;6.28;;;;;;;4.62;100.00;101223.97;5059602;28;20052;-60
2021/03/27 04:40:21;;;;;;;19.25;6.93;;;;;;;4.66;100.00;101216.66;5082875;22;20044;-60
2021/03/27 04:42:53;;;;;;;13.82;6.25;;;;;;;4.66;100.00;101230.00;5005160;28;20053;-62
2021/03/27 04:45:25;;;;;;;12.90;6.57;;;;;;;4.67;100.00;101223.72;5021100;28;20065;-62
2021/03/27 04:48:02;;;;;;;18.73;7.18;;;;;;;4.68;100.00;101223.63;5019837;28;20057;-62
2021/03/27 04:50:33;;;;;;;18.10;7.05;;;;;;;4.69;100.00;101225.31;5020996;28;20494;-64
2021/03/27 04:53:05;;;;;;;13.68;6.13;;;;;;;4.70;100.00;101216.38;5020802;28;20430;-60
2021/03/27 04:55:37;;;;;;;17.48;6.93;;;;;;;4.68;100.00;101228.09;5022310;28;20050;-61
2021/03/27 04:58:23;;;;;;;15.52;6.13;;;;;;;4.74;100.00;101249.94;5021565;28;20076;-61
2021/03/27 05:00:58;;;;;;;15.45;5.75;;;;;;;4.76;100.00;101246.31;5020754;28;20411;-60
2021/03/27 05:03:28;;;;;;;18.55;6.30;;;;;;;4.75;100.00;101250.78;5019785;28;20049;-60
2021/03/27 05:05:59;;;;;;;11.98;5.32;;;;;;;4.76;100.00;101255.16;5019793;28;20045;-61
2021/03/27 05:08:45;;;;;;;12.23;5.05;;;;;;;4.73;100.00;101258.88;5018892;28;20469;-60
2021/03/27 05:11:28;;;;;;;10.85;4.22;;;;;;;4.71;100.00;101266.09;5020514;28;20573;-63
2021/03/27 05:14:14;;;;;;;13.15;4.47;;;;;;;4.68;100.00;101268.97;5021473;28;20077;-60
2021/03/27 05:16:51;;;;;;;14.40;3.83;;;;;;;4.69;100.00;101259.13;5020103;28;20079;-60
2021/03/27 05:19:29;;;;;;;18.63;3.83;;;;;;;4.71;100.00;101270.56;5021558;28;20046;-60
2021/03/27 05:22:05;;;;;;;9.77;2.85;;;;;;;4.75;100.00;101272.13;5023680;28;20049;-60
2021/03/27 05:24:55;;;;;;;19.30;3.65;;;;;;;4.73;100.00;101282.88;5021072;28;20049;-63
2021/03/27 05:27:29;;;;;;;11.05;3.05;;;;;;;4.80;100.00;101291.38;5019063;28;20049;-61
2021/03/27 05:30:02;;;;;;;10.93;2.90;;;;;;;4.82;100.00;101289.47;5017758;28;20054;-62
2021/03/27 05:32:42;;;;;;;14.77;3.08;;;;;;;4.83;100.00;101295.66;5015948;28;20089;-63
2021/03/27 05:35:22;;;;;;;17.27;3.00;;;;;;;4.81;100.00;101286.91;5017385;28;20139;-61
2021/03/27 05:38:02;;;;;;;9.98;2.35;;;;;;;4.80;100.00;101290.50;5015162;28;20049;-62
2021/03/27 05:40:47;;;;;;;10.88;2.72;;;;;;;4.77;100.00;101291.56;5017656;28;20076;-61
2021/03/27 05:43:50;;;;;;;15.35;3.55;;;;;;;4.75;100.00;101293.44;5036693;28;20131;-62
2021/03/27 05:49:14;;;;;;;10.85;2.58;;;;;;;4.77;100.00;101306.69;5003981;22;20051;-61
2021/03/27 05:52:20;;;;;;;13.32;2.55;;;;;;;4.72;100.00;101304.28;5070586;28;20048;-64
2021/03/27 05:55:22;;;;;;;8.13;2.55;;;;;;;4.79;100.00;101313.66;5036147;28;20102;-64
2021/03/27 05:58:17;;;;;;;18.70;3.10;;;;;;;4.77;100.00;101320.91;5073273;28;20052;-60
2021/03/27 06:00:54;;;;;;;19.40;2.80;;;;;;;4.78;100.00;101325.28;5071699;28;20039;-60
2021/03/27 06:03:59;;;;;;;14.52;2.40;;;;;;;4.76;100.00;101326.31;5071525;28;20037;-61
2021/03/27 06:06:42;;;;;;;12.88;2.97;;;;;;;4.78;100.00;101327.09;5046434;28;20064;-62
2021/03/27 06:09:34;;;;;;;11.77;2.22;;;;;;;4.79;100.00;101334.16;5064557;28;20048;-65
2021/03/27 06:12:17;;;;;;;13.07;2.90;;;;;;;4.78;100.00;101343.09;5061683;28;20410;-61
2021/03/27 06:15:04;;;;;;;12.02;2.38;;;;;;;4.87;100.00;101350.56;5095938;22;20097;-64
2021/03/27 06:17:39;;;;;;;11.77;2.05;;;;;;;4.89;100.00;101354.00;5103119;28;20040;-60
2021/03/27 06:20:29;;;;;;;9.68;1.90;;;;;;;4.95;100.00;101359.00;5098944;28;20078;-63
2021/03/27 06:23:22;;;;;;;12.52;2.53;;;;;;;5.02;100.00;101367.50;5102786;28;20048;-61
2021/03/27 06:26:07;;;;;;;10.25;2.05;;;;;;;5.04;100.00;101368.28;5058565;28;20089;-63
2021/03/27 06:29:06;;;;;;;11.73;2.50;;;;;;;5.06;100.00;101377.03;5101666;28;20050;-61
2021/03/27 06:32:08;;;;;;;13.60;2.67;;;;;;;5.00;100.00;101388.06;5101544;28;20036;-61
2021/03/27 06:34:47;;;;;;;14.50;2.80;;;;;;;4.98;100.00;101393.50;5102300;28;20066;-62
2021/03/27 06:37:49;;;;;;;19.73;2.33;;;;;;;5.02;100.00;101403.06;5100251;28;20059;-64
2021/03/27 06:40:29;;;;;;;10.68;2.45;;;;;;;5.03;100.00;101406.56;5101446;28;20066;-65
2021/03/27 06:43:30;;;;;;;9.52;2.10;;;;;;;5.02;100.00;101412.84;5102322;28;20055;-62
2021/03/27 06:46:21;;;;;;;10.32;2.50;;;;;;;5.00;100.00;101425.41;5103423;28;20442;-61
2021/03/27 06:49:40;;;;;;;12.23;1.77;;;;;;;4.98;100.00;101424.66;5101330;28;20054;-61
2021/03/27 06:52:42;;;;;;;11.88;2.25;;;;;;;5.05;100.00;101431.34;5099025;28;20116;-61
2021/03/27 06:55:28;;;;;;;12.73;2.38;;;;;;;5.13;100.00;101431.78;5101234;28;20067;-61
2021/03/27 06:58:22;;;;;;;11.48;2.10;;;;;;;5.17;100.00;101433.34;5102095;28;20052;-61
2021/03/27 07:01:05;;;;;;;16.80;2.92;;;;;;;5.27;100.00;101436.34;5099787;28;20043;-65
2021/03/27 07:04:20;;;;;;;8.65;2.22;;;;;;;5.39;100.00;101443.66;5104122;28;20093;-63
2021/03/27 07:07:18;;;;;;;11.68;2.28;;;;;;;5.48;100.00;101447.59;5100988;28;20420;-62
2021/03/27 07:10:08;;;;;;;10.15;1.92;;;;;;;5.55;100.00;101448.09;5101643;28;20845;-62
2021/03/27 07:12:49;;;;;;;10.90;2.42;;;;;;;5.59;100.00;101445.19;5100414;28;20047;-62
2021/03/27 07:15:39;;;;;;;9.30;2.28;;;;;;;5.63;100.00;101451.19;5104193;28;20128;-64
2021/03/27 07:18:17;;;;;;;15.02;3.00;;;;;;;5.75;100.00;101449.59;5098996;28;20546;-62
2021/03/27 07:21:06;;;;;;;10.18;2.70;;;;;;;5.82;100.00;101461.66;5099702;28;20047;-62
2021/03/27 07:24:12;;;;;;;8.35;2.03;;;;;;;5.89;100.00;101462.13;5099715;28;20051;-62
2021/03/27 07:27:05;;;;;;;10.77;2.40;;;;;;;6.08;100.00;101472.63;5103002;28;20043;-62
2021/03/27 07:29:51;;;;;;;14.18;2.28;;;;;;;6.25;100.00;101474.28;5101210;28;20043;-62
2021/03/27 07:32:40;;;;;;;13.68;2.30;;;;;;;6.28;100.00;101485.63;5100113;28;20055;-63
2021/03/27 07:35:27;;;;;;;10.50;2.30;;;;;;;6.08;100.00;101476.16;5101038;28;20406;-62
2021/03/27 07:38:26;;;;;;;15.02;2.78;;;;;;;6.02;100.00;101489.91;5104625;28;20070;-64
2021/03/27 07:41:01;;;;;;;11.88;2.38;;;;;;;6.14;100.00;101499.84;5102688;28;20051;-62
2021/03/27 07:43:48;;;;;;;8.10;2.53;;;;;;;6.13;100.00;101505.28;5103672;28;20044;-64
2021/03/27 07:46:27;;;;;;;9.68;2.28;;;;;;;6.08;100.00;101518.94;5108026;28;20051;-61
2021/03/27 07:49:26;;;;;;;10.07;2.75;;;;;;;6.05;100.00;101510.22;5104972;28;20040;-64
2021/03/27 07:52:03;;;;;;;14.30;2.50;;;;;;;6.03;100.00;101514.81;5106922;28;20492;-63
2021/03/27 07:54:55;;;;;;;8.02;2.80;;;;;;;6.25;100.00;101517.06;5103985;28;20159;-62
2021/03/27 07:57:54;;;;;;;15.35;2.97;;;;;;;6.09;100.00;101530.47;5108000;28;20412;-64
2021/03/27 08:00:39;;;;;;;;;;;;;;;6.28;100.00;101533.75;5077223;28;20489;-65
2021/03/27 08:03:29;;;;;;;13.40;2.83;;;;;;;6.62;100.00;101534.38;5101256;28;19932;-63
2021/03/27 08:06:44;;;;;;;16.63;3.00;;;;;;;6.94;100.00;101530.69;5096688;22;20110;-62
2021/03/27 08:09:37;;;;;;;14.65;2.58;;;;;;;7.24;100.00;101527.88;4973830;28;20058;-63
2021/03/27 08:12:38;;;;;;;12.23;2.88;;;;;;;7.24;100.00;101535.91;4984266;28;20081;-63
2021/03/27 08:15:43;;;;;;;13.02;3.22;;;;;;;6.82;100.00;101538.53;4928626;28;20125;-64
2021/03/27 08:18:39;;;;;;;11.10;2.40;;;;;;;6.46;100.00;101552.34;4913112;28;20056;-62
2021/03/27 08:21:17;;;;;;;12.60;2.92;;;;;;;6.35;100.00;101549.47;4989453;28;20054;-62
2021/03/27 08:24:00;;;;;;;14.48;2.53;;;;;;;6.38;100.00;101554.63;4985815;28;20042;-63
2021/03/27 08:27:02;;;;;;;14.30;2.55;;;;;;;6.56;100.00;101566.88;4985956;28;20053;-63
2021/03/27 08:30:22;;;;;;;16.10;3.20;;;;;;;6.77;100.00;101583.44;4992082;28;20046;-63
2021/03/27 08:33:10;;;;;;;11.98;2.10;;;;;;;6.21;100.00;101580.53;4980192;28;20492;-62
2021/03/27 08:36:06;;;;;;;10.30;2.15;;;;;;;5.85;100.00;101604.88;5005361;28;20078;-62
2021/03/27 08:38:40;;;;;;;6.13;1.73;;;;;;;5.43;100.00;101610.72;5000310;28;20050;-63
2021/03/27 08:41:22;;;;;;;7.95;1.88;;;;;;;5.36;100.00;101604.00;5002581;28;20057;-63
2021/03/27 08:44:37;;;;;;;8.88;2.28;;;;;;;5.38;100.00;101617.25;5004145;28;20093;-65
2021/03/27 08:47:35;;;;;;;9.73;2.33;;;;;;;5.43;100.00;101609.84;5003348;28;20380;-63
2021/03/27 08:50:54;;;;;;;11.70;2.30;;;;;;;5.49;100.00;101630.00;5005191;28;20495;-62
2021/03/27 08:53:37;;;;;;;13.17;2.73;;;;;;;5.79;100.00;101624.78;5003026;28;20477;-63
2021/03/27 08:56:21;;;;;;;11.35;2.58;;;;;;;5.99;100.00;101633.50;4986536;28;20054;-63
2021/03/27 08:59:12;;;;;;;7.28;1.95;;;;;;;6.00;100.00;101635.22;4986465;28;20054;-61
2021/03/27 09:02:17;;;;;;;14.52;2.60;;;;;;;5.97;100.00;101634.44;4992089;28;20442;-62
2021/03/27 09:05:20;;;;;;;14.23;2.80;;;;;;;5.96;100.00;101643.41;5004549;28;20052;-62
2021/03/27 09:08:17;;;;;;;14.52;3.05;;;;;;;5.84;100.00;101649.41;4991926;28;20045;-63
2021/03/27 09:10:59;;;;;;;9.88;2.53;;;;;;;5.79;100.00;101651.50;5004150;28;20116;-62
2021/03/27 09:13:48;;;;;;;9.50;2.53;;;;;;;5.78;100.00;101660.44;5004964;28;20808;-64
2021/03/27 09:16:47;;;;;;;14.03;1.80;;;;;;;6.38;100.00;101661.56;5005520;28;20062;-63
2021/03/27 09:19:32;;;;;;;11.65;2.35;;;;;;;6.94;100.00;101670.72;5006904;28;20049;-62
2021/03/27 09:22:26;;;;;;;11.55;2.53;;;;;;;7.30;100.00;101677.47;5005566;28;20050;-63
2021/03/27 09:25:02;;;;;;;10.05;2.10;;;;;;;7.67;100.00;101669.81;5004865;28;20491;-62
2021/03/27 09:27:49;;;;;;;11.13;2.47;;;;;;;7.54;100.00;101676.91;5005950;28;20052;-63
2021/03/27 09:30:28;;;;;;;12.32;2.45;;;;;;;7.04;100.00;101679.06;4996876;28;20069;-63
2021/03/27 09:33:05;;;;;;;8.70;2.00;;;;;;;6.69;100.00;101691.88;5004897;28;20054;-63
2021/03/27 09:35:41;;;;;;;10.52;2.00;;;;;;;6.80;100.00;101694.75;4993046;28;20400;-64
2021/03/27 09:38:17;;;;;;;8.00;2.40;;;;;;;7.17;100.00;101708.63;5004759;28;20050;-62
2021/03/27 09:40:59;;;;;;;8.57;2.28;;;;;;;7.31;100.00;101719.34;4996578;28;20137;-63
2021/03/27 09:43:55;;;;;;;8.13;2.08;;;;;;;7.58;100.00;101713.22;4986074;28;20047;-63
2021/03/27 09:46:30;;;;;;;8.75;1.85;;;;;;;7.47;100.00;101727.28;4999326;28;20053;-63
2021/03/27 09:49:09;;;;;;;8.98;1.98;;;;;;;7.83;100.00;101722.41;5005266;28;20495;-71
2021/03/27 09:52:11;;;;;;;5.95;1.58;;;;;;;7.43;95.86;101735.63;5005480;28;20037;-61
2021/03/27 09:54:43;;;;;;;7.47;1.40;;;;;;;7.51;93.85;101723.47;5004979;28;20546;-61
2021/03/27 09:57:18;;;;;;;7.65;1.83;;;;;;;7.46;94.62;101740.78;5003949;28;20054;-61
2021/03/27 09:59:47;;;;;;;5.20;1.38;;;;;;;7.82;95.37;101742.16;5004050;28;20617;-64
2021/03/27 10:02:23;;;;;;;7.13;1.88;;;;;;;8.17;96.54;101736.34;5001196;28;20057;-62
2021/03/27 10:04:56;;;;;;;10.32;2.17;;;;;;;8.20;94.57;101746.88;5001296;28;20057;-62
2021/03/27 10:07:31;;;;;;;15.07;2.38;;;;;;;8.10;93.29;101751.09;5004561;28;20049;-62
2021/03/27 10:10:28;;;;;;;8.27;2.42;;;;;;;8.63;93.75;101768.25;5004122;28;20132;-62
2021/03/27 10:12:59;;;;;;;9.43;1.90;;;;;;;8.73;89.40;101753.28;5002638;28;20070;-63
2021/03/27 10:15:35;;;;;;;9.48;1.85;;;;;;;8.77;85.63;101768.22;5003729;28;20403;-63
2021/03/27 10:18:08;;;;;;;7.55;1.92;;;;;;;8.42;85.71;101774.03;5001346;28;20131;-64
2021/03/27 10:20:41;;;;;;;9.55;2.30;;;;;;;8.57;88.77;101774.03;5003914;28;20168;-63
2021/03/27 10:23:18;;;;;;;8.77;2.17;;;;;;;8.01;87.77;101793.63;5003273;28;20050;-63
2021/03/27 10:26:23;;;;;;;10.82;2.67;;;;;;;7.89;92.62;101803.31;5003717;28;20049;-63
2021/03/27 10:28:52;;;;;;;13.15;2.38;;;;;;;8.14;92.72;101804.47;5003430;28;20054;-63
2021/03/27 10:31:24;;;;;;;11.93;2.90;;;;;;;8.15;92.79;101802.63;5002389;28;20101;-62
2021/03/27 10:34:02;;;;;;;11.45;2.17;;;;;;;8.07;96.15;101817.38;5001919;28;20450;-62
2021/03/27 10:36:39;;;;;;;15.77;2.25;;;;;;;8.00;96.67;101826.75;5004023;28;20050;-63
2021/03/27 10:39:32;;;;;;;14.23;2.10;;;;;;;8.29;99.90;101826.75;5000978;28;20104;-64
2021/03/27 10:42:25;;;;;;;9.88;2.00;;;;;;;8.14;100.00;101825.03;5002519;28;20046;-64
2021/03/27 10:45:05;;;;;;;10.65;2.67;;;;;;;7.71;99.59;101836.59;5003179;28;20056;-62
2021/03/27 10:47:36;;;;;;;11.75;2.25;;;;;;;7.56;100.00;101834.84;4978239;28;20125;-63
2021/03/27 10:50:13;;;;;;;10.18;2.10;;;;;;;7.40;100.00;101841.13;4989341;28;20046;-62
2021/03/27 10:53:02;;;;;;;12.80;1.90;;;;;;;7.10;100.00;101841.13;4975301;28;20055;-62
2021/03/27 10:55:46;;;;;;;;;;;;;;;7.19;100.00;101845.94;4992842;28;20058;-61
2021/03/27 10:58:45;;;;;;;11.45;2.28;;;;;;;7.94;100.00;101847.75;4995187;28;19925;-62
2021/03/27 11:01:37;;;;;;;12.68;2.50;;;;;;;8.62;100.00;101844.34;5002730;28;20050;-65
2021/03/27 11:04:45;;;;;;;9.65;2.28;;;;;;;8.25;97.65;101844.84;5001943;28;20058;-64
2021/03/27 11:07:37;;;;;;;13.18;2.30;;;;;;;8.50;100.00;101850.53;5001448;28;20088;-62
2021/03/27 11:10:38;;;;;;;8.70;2.65;;;;;;;8.45;95.69;101868.72;4992032;22;20403;-63
2021/03/27 11:13:39;;;;;;;9.98;1.83;;;;;;;8.46;98.32;101882.03;5054847;28;20084;-62
2021/03/27 11:16:32;;;;;;;13.80;2.60;;;;;;;9.04;98.69;101887.28;5055868;28;20045;-63
2021/03/27 11:19:35;;;;;;;12.60;2.00;;;;;;;9.17;94.67;101887.34;5018082;28;20055;-62
2021/03/27 11:22:36;;;;;;;10.52;2.13;;;;;;;8.94;92.66;101898.63;5053819;28;20087;-63
2021/03/27 11:25:33;;;;;;;9.23;2.40;;;;;;;9.02;92.12;101895.44;5054164;28;20425;-63
2021/03/27 11:28:15;;;;;;;7.45;1.90;;;;;;;9.27;96.75;101893.84;5000451;28;20075;-63
2021/03/27 11:31:06;;;;;;;11.93;2.22;;;;;;;9.05;98.38;101911.34;5053014;28;20037;-64
2021/03/27 11:33:36;;;;;;;12.57;2.05;;;;;;;8.65;97.97;101913.94;5055854;28;20076;-64
2021/03/27 11:36:09;;;;;;;13.15;2.30;;;;;;;8.48;100.00;101919.50;5055795;28;20049;-64
2021/03/27 11:38:39;;;;;;;12.02;2.53;;;;;;;8.68;100.00;101921.78;5053398;28;20044;-63
2021/03/27 11:41:16;;;;;;;12.82;2.70;;;;;;;8.89;100.00;101922.25;5054148;28;20044;-63
2021/03/27 11:44:12;;;;;;;13.30;2.78;;;;;;;8.51;100.00;101944.34;5054098;28;20091;-63
2021/03/27 11:46:41;;;;;;;11.98;2.50;;;;;;;8.73;100.00;101943.84;5056149;28;20045;-62
2021/03/27 11:49:16;;;;;;;9.45;2.60;;;;;;;8.48;100.00;101946.34;5054512;28;20079;-64
2021/03/27 11:51:46;;;;;;;13.50;2.50;;;;;;;8.31;100.00;101953.56;5055647;28;20049;-62
2021/03/27 11:54:34;;;;;;;12.20;2.28;;;;;;;7.74;100.00;101966.88;5054578;28;20061;-63
2021/03/27 11:57:30;;;;;;;7.93;2.58;;;;;;;6.87;100.00;101966.41;5053216;28;20517;-63
2021/03/27 12:03:14;;;;;;;9.82;2.75;;;;;;;6.61;100.00;101990.09;5055313;28;20052;-62
2021/03/27 12:05:49;;;;;;;9.38;2.53;;;;;;;6.61;100.00;101989.22;5051131;28;20064;-62
2021/03/27 12:08:26;;;;;;;14.73;2.88;;;;;;;6.31;100.00;101998.78;5040012;28;20049;-62
2021/03/27 12:11:00;;;;;;;7.70;1.90;;;;;;;6.39;100.00;102000.19;5056584;28;22045;-62
2021/03/27 12:13:33;;;;;;;12.60;2.38;;;;;;;6.73;100.00;102014.44;5058806;28;20378;-61
2021/03/27 12:16:15;;;;;;;10.52;2.35;;;;;;;6.81;100.00;102020.25;5056125;28;20045;-62
2021/03/27 12:18:57;;;;;;;9.90;2.47;;;;;;;6.69;100.00;102004.88;5057186;28;20041;-62
2021/03/27 12:21:28;;;;;;;16.63;2.78;;;;;;;6.58;100.00;102016.13;5059831;28;20094;-63
2021/03/27 12:24:00;;;;;;;14.93;3.40;;;;;;;7.12;100.00;102015.91;5062185;28;20061;-62
2021/03/27 12:26:36;;;;;;;19.20;3.67;;;;;;;7.78;100.00;102028.22;5060123;28;20060;-64
2021/03/27 12:29:10;;;;;;;16.73;3.00;;;;;;;8.21;100.00;102024.84;5060626;28;20114;-65
2021/03/27 12:31:49;;;;;;;24.15;3.72;;;;;;;8.76;100.00;102020.63;5060925;28;20068;-62
2021/03/27 12:34:24;;;;;;;11.18;2.33;;;;;;;8.81;100.00;102023.88;5062200;28;20586;-65
2021/03/27 12:37:04;;;;;;;8.45;2.35;;;;;;;9.07;100.00;102022.25;5060657;28;20052;-62
2021/03/27 12:39:41;;;;;;;14.88;2.75;;;;;;;8.88;100.00;102027.06;5059457;28;20041;-62
2021/03/27 12:42:14;;;;;;;14.02;3.28;;;;;;;8.98;100.00;102025.53;5061889;28;20176;-62